09K weather

Sargent Municipal Airport
Sargent, Nebraska, United States

Public forecast

Using degrees Fahrenheit for public forecast. Weather courtesy of forecast.io.

Closest aviation weather report (METAR) to Sargent Municipal Airport

Closest report is Evelyn Sharp Field, 17.4 nm (32.3 km) E. Retrieved 2019/10/13 20:53 UTC (19 minutes ago):

KODX 132053Z AUTO 31009G20KT 10SM CLR 16/M07 A2991 RMK AO2 SLP140 T01561072 56018

Closest aviation forecast (TAF) to Sargent Municipal Airport

Closest forecast is Kearney Regional Airport, 56.7 nm (105.0 km) SSE. Retrieved 2019/10/13 18:22 UTC (3 hours ago):

TAF KEAR 131720Z 1318/1418 31010KT P6SM SKC FM132200 26007KT P6SM SKC FM140000 00000KT P6SM SKC FM141100 15005KT P6SM FEW250 FM141400 17010KT P6SM FEW250